Time;durP1;ratioP1;P1;durP2;ratioP2;P2;SDS_P1;SDS_P2;PMS_P1;PMS_P2;Temp;Humidity;BMP_temperature;BMP_pressure;BME280_temperature;BME280_humidity;BME280_pressure;Samples;Min_cycle;Max_cycle;Signal;HPM_P1;HPM_P2
2023/02/04 00:07:45;;;;;;;0.40;0.40;;;;;;;3.52;78.68;99586.47;30862154;28;96892;-64
2023/02/04 00:22:45;;;;;;;0.98;0.70;;;;;;;3.14;77.95;99617.06;30860706;28;97477;-63
2023/02/04 00:37:46;;;;;;;1.88;0.93;;;;;;;2.93;77.10;99664.53;30860980;28;96818;-63
2023/02/04 00:52:46;;;;;;;0.68;0.60;;;;;;;2.66;76.76;99682.56;30859446;28;97080;-64
2023/02/04 01:07:47;;;;;;;0.82;0.60;;;;;;;2.39;77.50;99708.59;30858225;28;97180;-64
2023/02/04 01:22:47;;;;;;;1.05;0.80;;;;;;;2.17;78.10;99747.16;30856465;28;96620;-63
2023/02/04 01:37:47;;;;;;;1.65;1.08;;;;;;;2.02;78.16;99799.19;30855580;28;96976;-63
2023/02/04 01:52:48;;;;;;;8.57;6.10;;;;;;;1.62;77.85;99928.44;30854529;28;96597;-62
2023/02/04 02:07:51;;;;;;;8.48;5.85;;;;;;;1.03;77.05;100011.59;30853977;28;96734;-66
2023/02/04 02:23:15;;;;;;;3.90;3.08;;;;;;;0.70;77.08;100127.63;30861268;28;96693;-63
2023/02/04 02:38:18;;;;;;;9.40;4.03;;;;;;;0.42;76.35;100240.47;30872775;28;96531;-67
2023/02/04 02:53:19;;;;;;;5.57;3.45;;;;;;;0.24;76.30;100321.16;30870265;28;96620;-64
2023/02/04 03:08:20;;;;;;;4.82;2.08;;;;;;;0.16;76.10;100402.91;30869056;28;96608;-63
2023/02/04 03:23:21;;;;;;;2.65;2.10;;;;;;;0.07;75.94;100492.53;30866446;28;97566;-64
2023/02/04 03:38:21;;;;;;;1.05;0.98;;;;;;;-0.09;75.12;100576.44;30865874;28;96637;-64
2023/02/04 03:53:22;;;;;;;2.65;1.55;;;;;;;-0.27;74.89;100656.94;30864925;28;96681;-63
2023/02/04 04:08:22;;;;;;;2.67;1.92;;;;;;;-0.39;74.82;100718.69;30862401;28;96613;-65
2023/02/04 04:23:22;;;;;;;4.05;1.85;;;;;;;-0.40;74.49;100773.75;30860499;28;96706;-63
2023/02/04 04:38:23;;;;;;;3.88;2.20;;;;;;;-0.42;73.79;100836.69;30859547;28;96649;-63
2023/02/04 04:53:23;;;;;;;3.85;2.67;;;;;;;-0.41;73.85;100890.72;30857467;28;97258;-63
2023/02/04 05:08:23;;;;;;;4.43;2.65;;;;;;;-0.50;73.44;100946.19;30857323;28;97239;-63
2023/02/04 05:23:24;;;;;;;5.13;3.38;;;;;;;-0.50;73.03;101029.94;30855061;28;97281;-63
2023/02/04 05:38:24;;;;;;;4.13;2.92;;;;;;;-0.50;72.67;101063.13;30854107;28;97536;-66
2023/02/04 05:53:25;;;;;;;4.63;3.05;;;;;;;-0.55;72.73;101120.94;30855782;28;97225;-65
2023/02/04 06:08:25;;;;;;;7.22;3.97;;;;;;;-0.56;72.52;101169.84;30873938;28;97376;-67
2023/02/04 06:23:26;;;;;;;7.63;3.45;;;;;;;-0.51;72.30;101219.34;30868845;28;96569;-65
2023/02/04 06:38:26;;;;;;;5.43;3.53;;;;;;;-0.49;72.63;101266.38;30865072;28;96926;-67
2023/02/04 06:53:26;;;;;;;6.10;3.15;;;;;;;-0.40;72.31;101324.38;30863023;28;97229;-64
2023/02/04 07:08:27;;;;;;;3.25;2.75;;;;;;;-0.38;72.25;101384.56;30861012;28;96655;-66
2023/02/04 07:23:27;;;;;;;3.90;2.10;;;;;;;-0.30;71.89;101429.56;30770896;28;1208832;-62
2023/02/04 07:38:28;;;;;;;5.72;2.92;;;;;;;-0.09;71.37;101453.91;30783390;28;96806;-65
2023/02/04 07:53:28;;;;;;;2.78;1.75;;;;;;;0.93;72.31;101472.69;30747458;28;96802;-61
2023/02/04 08:08:29;;;;;;;5.00;2.10;;;;;;;3.00;71.13;101495.78;30740619;28;96824;-62
2023/02/04 08:23:29;;;;;;;6.50;2.22;;;;;;;4.97;68.55;101513.53;30735430;28;96891;-61
2023/02/04 08:38:30;;;;;;;4.13;2.28;;;;;;;7.10;64.60;101522.47;30810983;28;97069;-63
2023/02/04 08:53:30;;;;;;;3.53;2.00;;;;;;;14.84;56.24;101533.50;30845523;28;97371;-64
2023/02/04 09:08:31;;;;;;;4.55;1.65;;;;;;;15.31;40.77;101550.78;30844822;28;96787;-63
2023/02/04 09:23:31;;;;;;;4.47;1.58;;;;;;;9.89;46.06;101572.06;30843127;28;97694;-65
2023/02/04 09:38:32;;;;;;;6.10;2.50;;;;;;;6.52;48.98;101611.50;30843610;28;97181;-63
2023/02/04 09:53:35;;;;;;;5.97;2.20;;;;;;;4.84;51.62;101610.34;30843086;28;97196;-64
2023/02/04 10:08:35;;;;;;;3.30;1.77;;;;;;;4.30;52.92;101627.75;30841902;28;97503;-64
2023/02/04 10:23:36;;;;;;;4.82;2.50;;;;;;;7.30;49.39;101634.16;30839213;28;97052;-63
2023/02/04 10:38:36;;;;;;;4.68;2.05;;;;;;;4.60;51.28;101665.56;30840581;28;96825;-64
2023/02/04 11:08:58;;;;;;;2.80;1.70;;;;;;;6.84;50.11;101701.06;30851371;28;97086;-64
2023/02/04 11:24:10;;;;;;;9.98;2.65;;;;;;;7.95;49.26;101708.88;30854014;28;96757;-64
2023/02/04 11:39:15;;;;;;;3.70;1.70;;;;;;;7.45;46.43;101722.31;30854217;28;97686;-65
2023/02/04 11:54:22;;;;;;;5.72;1.30;;;;;;;5.18;46.53;101729.72;30849777;28;97158;-65
2023/02/04 12:09:25;;;;;;;4.38;1.63;;;;;;;4.12;47.01;101742.31;30850229;28;97086;-64
2023/02/04 12:24:25;;;;;;;2.20;1.27;;;;;;;2.96;47.95;101762.78;30858110;28;96805;-64
2023/02/04 12:39:27;;;;;;;3.00;1.83;;;;;;;3.51;48.62;101771.22;30857947;28;96589;-68
2023/02/04 12:54:27;;;;;;;3.58;1.80;;;;;;;3.12;48.56;101769.88;30857014;28;96704;-69
2023/02/04 13:09:28;;;;;;;8.13;1.85;;;;;;;3.30;49.18;101789.09;30855901;28;97507;-69
2023/02/04 13:24:28;;;;;;;3.60;1.90;;;;;;;5.41;45.02;101800.47;30853747;28;96631;-66
2023/02/04 13:39:29;;;;;;;5.82;2.13;;;;;;;4.14;45.97;101801.94;30852824;28;97269;-65
2023/02/04 13:54:29;;;;;;;7.35;2.20;;;;;;;3.30;46.95;101821.53;30851784;28;96652;-67
2023/02/04 14:09:30;;;;;;;3.05;1.20;;;;;;;2.40;49.47;101872.66;30843880;28;96727;-63
2023/02/04 14:24:31;;;;;;;3.78;1.58;;;;;;;1.77;52.69;101852.06;30866479;28;96593;-63
2023/02/04 14:39:31;;;;;;;6.72;1.45;;;;;;;1.52;54.26;101859.28;30870190;28;96982;-64
2023/02/04 14:54:31;;;;;;;5.93;2.40;;;;;;;1.47;54.60;101866.53;30868478;28;96741;-65
2023/02/04 15:09:32;;;;;;;4.32;1.40;;;;;;;0.97;55.45;101870.50;30861642;28;96722;-66
2023/02/04 15:24:32;;;;;;;5.57;2.33;;;;;;;0.19;58.01;101879.84;30855159;28;97273;-67
2023/02/04 15:39:33;;;;;;;7.53;2.70;;;;;;;0.28;59.01;101897.81;30853210;28;97460;-63
2023/02/04 15:54:35;;;;;;;4.38;1.90;;;;;;;0.33;59.68;101903.75;30861858;28;96641;-65
2023/02/04 16:09:35;;;;;;;4.22;1.60;;;;;;;-0.14;60.99;101909.06;30859463;28;96658;-65
2023/02/04 16:24:37;;;;;;;8.18;2.15;;;;;;;-0.48;61.24;101919.97;30858065;28;97060;-65
2023/02/04 16:39:37;;;;;;;3.90;2.17;;;;;;;-0.68;61.62;101925.00;30857084;28;97390;-66
2023/02/04 16:54:38;;;;;;;6.22;1.70;;;;;;;-0.79;62.46;101942.88;30850165;28;96764;-64
2023/02/04 17:09:38;;;;;;;3.83;1.73;;;;;;;-0.72;62.92;101948.75;30845813;28;96757;-63
2023/02/04 17:24:42;;;;;;;6.78;1.77;;;;;;;-0.75;63.17;101948.84;30843529;28;97179;-63
2023/02/04 17:39:42;;;;;;;5.77;2.20;;;;;;;-0.72;63.55;101967.91;30782563;28;96950;-63
2023/02/04 17:54:43;;;;;;;5.63;2.33;;;;;;;-0.71;63.38;101969.63;30836945;28;97595;-63
2023/02/04 18:09:43;;;;;;;10.23;2.60;;;;;;;-0.70;63.16;101984.44;30858818;28;97956;-64
2023/02/04 18:24:47;;;;;;;6.05;2.67;;;;;;;-0.61;63.59;101995.50;30790781;28;97277;-68
2023/02/04 18:39:47;;;;;;;4.37;2.27;;;;;;;-0.60;62.87;102028.59;30811960;28;97875;-65
2023/02/04 18:54:57;;;;;;;5.93;1.95;;;;;;;-0.63;62.39;102036.56;30746871;28;96863;-66
2023/02/04 19:09:58;;;;;;;4.22;2.20;;;;;;;-0.71;62.44;102039.41;30849079;28;97385;-64
2023/02/04 19:25:20;;;;;;;5.75;2.42;;;;;;;-0.83;62.60;102066.00;30782086;28;97376;-64
2023/02/04 19:40:32;;;;;;;4.80;1.65;;;;;;;-0.75;62.18;102064.00;30746646;28;97760;-67
2023/02/04 19:55:40;;;;;;;4.10;1.88;;;;;;;-0.72;61.96;102077.84;30796356;28;97111;-64
2023/02/04 20:10:41;;;;;;;4.40;2.20;;;;;;;-0.80;62.13;102081.63;30827523;28;97299;-69
2023/02/04 20:25:44;;;;;;;5.80;2.30;;;;;;;-0.77;61.99;102092.81;30788545;28;97615;-71
2023/02/04 20:40:45;;;;;;;4.23;2.00;;;;;;;-0.88;61.18;102097.56;30786019;28;97238;-67
2023/02/04 20:56:02;;;;;;;7.07;2.28;;;;;;;-1.80;61.81;102122.97;30794187;28;98049;-65
2023/02/04 21:11:03;;;;;;;4.53;2.20;;;;;;;-2.32;63.10;102138.28;30853397;28;96772;-65
2023/02/04 21:26:05;;;;;;;6.53;2.70;;;;;;;-2.73;63.46;102142.75;30850471;28;97311;-65
2023/02/04 21:41:06;;;;;;;7.78;2.97;;;;;;;-2.98;64.09;102135.50;30853462;28;97619;-65
2023/02/04 21:56:07;;;;;;;8.52;2.90;;;;;;;-3.09;65.00;102161.81;30852068;28;96703;-69
2023/02/04 22:11:09;;;;;;;5.65;2.67;;;;;;;-3.26;65.81;102174.38;30852133;28;96712;-65
2023/02/04 22:26:09;;;;;;;4.15;2.08;;;;;;;-3.00;66.52;102175.56;30851125;28;97199;-67
2023/02/04 22:41:09;;;;;;;4.47;1.90;;;;;;;-2.82;66.37;102180.34;30860865;28;97359;-69
2023/02/04 22:56:11;;;;;;;4.90;2.65;;;;;;;-2.47;66.17;102175.22;30869152;28;96547;-72
2023/02/04 23:11:12;;;;;;;2.78;1.73;;;;;;;-2.30;66.01;102177.38;30870043;28;97324;-74
2023/02/04 23:26:13;;;;;;;7.50;2.90;;;;;;;-2.80;65.39;102162.91;30866991;28;97147;-71
2023/02/04 23:41:13;;;;;;;4.25;2.20;;;;;;;-3.02;66.25;102167.75;30866280;28;97441;-72
2023/02/04 23:56:14;;;;;;;7.97;3.22;;;;;;;-3.28;66.10;102161.38;30864702;28;96889;-73
